Time;durP1;ratioP1;P1;durP2;ratioP2;P2;SDS_P1;SDS_P2;PMS_P1;PMS_P2;Temp;Humidity;BMP_temperature;BMP_pressure;BME280_temperature;BME280_humidity;BME280_pressure;Samples;Min_cycle;Max_cycle;Signal;HPM_P1;HPM_P2
2021/05/25 00:00:46;;;;;;;1.38;0.80;;;12.80;99.90;;;;;;2062939;28;20383;-68
2021/05/25 00:01:47;;;;;;;1.23;0.70;;;12.70;99.90;;;;;;2063180;28;20026;-68
2021/05/25 00:02:48;;;;;;;2.20;0.88;;;12.70;99.90;;;;;;2062456;28;20034;-69
2021/05/25 00:03:49;;;;;;;1.55;0.90;;;12.70;99.90;;;;;;2063066;28;20680;-68
2021/05/25 00:04:50;;;;;;;2.88;0.47;;;12.70;99.90;;;;;;2062816;28;20057;-69
2021/05/25 00:05:50;;;;;;;2.25;0.85;;;12.70;99.90;;;;;;2062857;28;20376;-69
2021/05/25 00:06:52;;;;;;;1.55;0.73;;;12.70;99.90;;;;;;2062674;28;20042;-68
2021/05/25 00:07:54;;;;;;;1.13;0.60;;;12.80;99.90;;;;;;2063061;28;20149;-68
2021/05/25 00:08:55;;;;;;;1.05;0.80;;;12.70;99.90;;;;;;2063100;28;20110;-68
2021/05/25 00:09:55;;;;;;;1.65;0.65;;;12.80;99.90;;;;;;2063266;28;20022;-68
2021/05/25 00:10:56;;;;;;;1.40;1.00;;;12.70;99.90;;;;;;2063104;28;20065;-68
2021/05/25 00:11:57;;;;;;;0.82;0.43;;;12.70;99.90;;;;;;2062911;28;20312;-68
2021/05/25 00:12:58;;;;;;;1.00;0.63;;;12.70;99.90;;;;;;2062461;28;20037;-68
2021/05/25 00:14:00;;;;;;;1.83;0.80;;;12.70;99.90;;;;;;2062985;28;20470;-68
2021/05/25 00:15:03;;;;;;;2.22;0.63;;;12.70;99.90;;;;;;2062798;28;20026;-68
2021/05/25 00:16:04;;;;;;;1.95;0.50;;;12.70;99.90;;;;;;2062836;28;20022;-68
2021/05/25 00:17:05;;;;;;;1.20;0.60;;;12.60;99.90;;;;;;2062859;28;20087;-68
2021/05/25 00:18:05;;;;;;;0.65;0.43;;;12.60;99.90;;;;;;2063056;28;20073;-68
2021/05/25 00:19:06;;;;;;;1.67;0.65;;;12.60;99.90;;;;;;2062271;28;20038;-68
2021/05/25 00:20:09;;;;;;;1.45;0.70;;;12.60;99.90;;;;;;2060421;28;20096;-68
2021/05/25 00:21:09;;;;;;;0.88;0.57;;;12.60;99.90;;;;;;2059553;28;20058;-69
2021/05/25 00:22:12;;;;;;;1.60;0.70;;;12.60;99.90;;;;;;2062544;28;20030;-68
2021/05/25 00:23:12;;;;;;;1.75;0.60;;;12.60;99.90;;;;;;2062881;28;20081;-68
2021/05/25 00:24:14;;;;;;;1.08;0.55;;;12.60;99.90;;;;;;2062904;28;20080;-68
2021/05/25 00:25:17;;;;;;;0.85;0.40;;;12.60;99.90;;;;;;2064886;28;20827;-68
2021/05/25 00:26:17;;;;;;;1.30;0.47;;;12.60;99.90;;;;;;2065555;28;20026;-68
2021/05/25 00:27:18;;;;;;;1.58;0.70;;;12.60;99.90;;;;;;2070133;28;20037;-68
2021/05/25 00:28:20;;;;;;;4.10;0.90;;;12.50;99.90;;;;;;2071099;28;20481;-68
2021/05/25 00:29:21;;;;;;;1.85;0.73;;;12.60;99.90;;;;;;2064457;28;20034;-68
2021/05/25 00:30:22;;;;;;;0.93;0.60;;;12.60;99.90;;;;;;2063985;28;20037;-68
2021/05/25 00:31:22;;;;;;;0.73;0.50;;;12.60;99.90;;;;;;2057313;28;20037;-69
2021/05/25 00:32:23;;;;;;;0.80;0.60;;;12.50;99.90;;;;;;2055932;28;20669;-68
2021/05/25 00:33:23;;;;;;;0.65;0.50;;;12.50;99.90;;;;;;2056511;28;20035;-68
2021/05/25 00:34:24;;;;;;;0.52;0.40;;;12.60;99.90;;;;;;2056765;28;20486;-69
2021/05/25 00:35:26;;;;;;;2.47;0.82;;;12.50;99.90;;;;;;2056481;28;20038;-68
2021/05/25 00:36:28;;;;;;;0.60;0.38;;;12.60;99.90;;;;;;2056251;28;20035;-68
2021/05/25 00:37:28;;;;;;;1.20;0.40;;;12.60;99.90;;;;;;2055939;28;20030;-68
2021/05/25 00:38:29;;;;;;;1.42;0.52;;;12.60;99.90;;;;;;2062660;28;20105;-69
2021/05/25 00:39:29;;;;;;;1.88;0.40;;;12.50;99.90;;;;;;2062662;28;20092;-68
2021/05/25 00:40:30;;;;;;;0.88;0.47;;;12.50;99.90;;;;;;2064364;28;20105;-69
2021/05/25 00:41:31;;;;;;;2.53;0.52;;;12.50;99.90;;;;;;2064366;28;20108;-69
2021/05/25 00:42:32;;;;;;;1.00;0.60;;;12.50;99.90;;;;;;2063774;28;20036;-68
2021/05/25 00:43:33;;;;;;;0.57;0.50;;;12.50;99.90;;;;;;2064831;28;20382;-68
2021/05/25 00:44:33;;;;;;;0.57;0.50;;;12.50;99.90;;;;;;2064250;28;20038;-69
2021/05/25 00:45:34;;;;;;;1.60;0.88;;;12.50;99.90;;;;;;2064335;28;20497;-68
2021/05/25 00:46:36;;;;;;;1.58;0.52;;;12.50;99.90;;;;;;2064345;28;20041;-69
2021/05/25 00:47:38;;;;;;;0.52;0.50;;;12.50;99.90;;;;;;2064693;28;20034;-68
2021/05/25 00:48:39;;;;;;;1.40;0.47;;;12.50;99.90;;;;;;2071909;28;20497;-68
2021/05/25 00:49:40;;;;;;;0.98;0.50;;;12.50;99.90;;;;;;2071924;28;20505;-68
2021/05/25 00:50:40;;;;;;;0.73;0.50;;;12.40;99.90;;;;;;2064116;28;20030;-68
2021/05/25 00:51:41;;;;;;;1.13;0.52;;;12.40;99.90;;;;;;2064473;28;20387;-68
2021/05/25 00:52:54;;;;;;;1.85;0.50;;;12.40;99.90;;;;;;2063740;28;20294;-68
2021/05/25 00:53:54;;;;;;;4.80;0.68;;;12.40;99.90;;;;;;2064541;28;20081;-68
2021/05/25 00:54:55;;;;;;;2.25;0.60;;;12.40;99.90;;;;;;2064007;28;20075;-68
2021/05/25 00:55:56;;;;;;;0.57;0.45;;;12.40;99.90;;;;;;2064418;28;20106;-68
2021/05/25 00:56:58;;;;;;;1.50;0.65;;;12.30;99.90;;;;;;2064407;28;20021;-69
2021/05/25 00:58:00;;;;;;;0.57;0.50;;;12.30;99.90;;;;;;2064640;28;20042;-68
2021/05/25 00:59:01;;;;;;;2.00;0.50;;;12.30;99.90;;;;;;2064534;28;20057;-68
2021/05/25 01:00:04;;;;;;;1.15;0.40;;;12.30;99.90;;;;;;2064465;28;20026;-68
2021/05/25 01:01:05;;;;;;;1.48;0.63;;;12.30;99.90;;;;;;2064067;28;20026;-68
2021/05/25 01:02:06;;;;;;;0.68;0.43;;;12.30;99.90;;;;;;2063955;28;20022;-68
2021/05/25 01:03:08;;;;;;;2.47;0.60;;;12.30;99.90;;;;;;2063729;28;20030;-68
2021/05/25 01:04:08;;;;;;;0.77;0.65;;;12.30;99.90;;;;;;2064355;28;20429;-69
2021/05/25 01:05:11;;;;;;;2.58;0.52;;;12.30;99.90;;;;;;2064449;28;20113;-68
2021/05/25 01:06:12;;;;;;;2.42;1.05;;;12.20;99.90;;;;;;2064731;28;20068;-69
2021/05/25 01:07:13;;;;;;;0.95;0.55;;;12.20;99.90;;;;;;2064272;28;20030;-68
2021/05/25 01:08:14;;;;;;;0.98;0.45;;;12.20;99.90;;;;;;2063936;28;20101;-68
2021/05/25 01:09:17;;;;;;;0.73;0.50;;;12.20;99.90;;;;;;2064106;28;20026;-68
2021/05/25 01:10:26;;;;;;;1.52;0.70;;;12.20;99.90;;;;;;2059698;28;20489;-69
2021/05/25 01:11:33;;;;;;;1.27;0.50;;;12.20;99.90;;;;;;2074406;28;20033;-68
2021/05/25 01:12:36;;;;;;;2.50;0.52;;;12.10;99.90;;;;;;2074496;28;20791;-68
2021/05/25 01:13:47;;;;;;;1.77;0.68;;;12.10;99.90;;;;;;2071110;28;20533;-68
2021/05/25 01:14:53;;;;;;;2.63;0.73;;;12.10;99.90;;;;;;2068857;28;20056;-68
2021/05/25 01:15:54;;;;;;;1.45;0.60;;;12.10;99.90;;;;;;2064107;28;20564;-68
2021/05/25 01:16:54;;;;;;;1.70;0.77;;;12.10;99.90;;;;;;2064143;28;20045;-68
2021/05/25 01:17:57;;;;;;;1.27;0.55;;;12.10;99.90;;;;;;2064168;28;20054;-69
2021/05/25 01:18:58;;;;;;;2.15;0.60;;;12.10;99.90;;;;;;2063677;28;20026;-68
2021/05/25 01:19:59;;;;;;;0.47;0.47;;;12.20;99.90;;;;;;2064441;28;20114;-68
2021/05/25 01:21:00;;;;;;;0.75;0.60;;;12.20;99.90;;;;;;2071492;28;20521;-68
2021/05/25 01:22:01;;;;;;;2.67;0.77;;;12.20;99.90;;;;;;2071935;28;20524;-68
2021/05/25 01:23:02;;;;;;;2.28;1.20;;;12.20;99.90;;;;;;2063514;28;20497;-68
2021/05/25 01:24:04;;;;;;;0.82;0.57;;;12.20;99.90;;;;;;2064026;28;20026;-68
2021/05/25 01:25:12;;;;;;;1.45;0.80;;;12.20;99.90;;;;;;2064193;28;20061;-68
2021/05/25 01:26:15;;;;;;;2.25;0.60;;;12.20;99.90;;;;;;2064351;28;20018;-68
2021/05/25 01:27:15;;;;;;;1.60;0.60;;;12.20;99.90;;;;;;2064055;28;20022;-68
2021/05/25 01:28:19;;;;;;;2.15;0.82;;;12.10;99.90;;;;;;2063815;28;20165;-68
2021/05/25 01:29:20;;;;;;;0.52;0.50;;;12.20;99.90;;;;;;2064020;28;20470;-68
2021/05/25 01:30:27;;;;;;;2.42;0.70;;;12.10;99.90;;;;;;2064169;28;20461;-68
2021/05/25 01:31:27;;;;;;;2.45;0.73;;;12.20;99.90;;;;;;2063839;28;20026;-68
2021/05/25 01:32:28;;;;;;;1.65;0.80;;;12.20;99.90;;;;;;2063497;28;20026;-68
2021/05/25 01:33:30;;;;;;;2.40;0.88;;;12.20;99.90;;;;;;2064145;28;20084;-68
2021/05/25 01:34:31;;;;;;;1.27;0.60;;;12.20;99.90;;;;;;2064350;28;20026;-68
2021/05/25 01:35:33;;;;;;;0.88;0.57;;;12.20;99.90;;;;;;2063935;28;20026;-68
2021/05/25 01:36:33;;;;;;;0.63;0.60;;;12.20;99.90;;;;;;2064208;28;20027;-68
2021/05/25 01:37:34;;;;;;;0.50;0.50;;;12.20;99.90;;;;;;2063990;28;20030;-68
2021/05/25 01:38:36;;;;;;;1.67;0.60;;;12.10;99.90;;;;;;2064262;28;20023;-68
2021/05/25 01:39:36;;;;;;;1.30;0.57;;;12.20;99.90;;;;;;2063550;28;20073;-68
2021/05/25 01:40:38;;;;;;;1.30;0.70;;;12.20;99.90;;;;;;2064004;28;20062;-68
2021/05/25 01:41:39;;;;;;;1.85;0.60;;;12.20;99.90;;;;;;2063969;28;20486;-68
2021/05/25 01:42:40;;;;;;;2.15;0.68;;;12.20;99.90;;;;;;2063402;28;20036;-68
2021/05/25 01:43:41;;;;;;;0.65;0.60;;;12.20;99.90;;;;;;2071095;28;20026;-68
2021/05/25 01:44:41;;;;;;;1.02;0.70;;;12.20;99.90;;;;;;2071374;28;20121;-68
2021/05/25 01:45:42;;;;;;;0.63;0.55;;;12.20;99.90;;;;;;2064070;28;20386;-68
2021/05/25 01:46:44;;;;;;;0.85;0.60;;;12.20;99.90;;;;;;2063854;28;20034;-68
2021/05/25 01:47:45;;;;;;;0.40;0.40;;;12.20;99.90;;;;;;2063762;28;20030;-68
2021/05/25 01:48:49;;;;;;;1.77;0.82;;;12.20;99.90;;;;;;2064131;28;20023;-68
2021/05/25 01:49:49;;;;;;;0.45;0.40;;;12.20;99.90;;;;;;2063691;28;20572;-68
2021/05/25 01:50:50;;;;;;;1.65;0.73;;;12.10;99.90;;;;;;2064021;28;20032;-68
2021/05/25 01:51:52;;;;;;;0.40;0.40;;;12.10;99.90;;;;;;2063736;28;20037;-69
2021/05/25 01:52:58;;;;;;;1.52;0.60;;;12.20;99.90;;;;;;2063715;28;20426;-69
2021/05/25 01:53:59;;;;;;;1.25;0.65;;;12.10;99.90;;;;;;2063880;28;20030;-68
2021/05/25 01:54:59;;;;;;;0.95;0.63;;;12.10;99.90;;;;;;2063841;28;20022;-68
2021/05/25 01:56:00;;;;;;;3.33;0.60;;;12.10;99.90;;;;;;2063913;28;20022;-68
2021/05/25 01:57:01;;;;;;;1.15;0.60;;;12.10;99.90;;;;;;2063961;28;20022;-68
2021/05/25 01:58:07;;;;;;;0.52;0.50;;;12.20;99.90;;;;;;2071267;28;20105;-69
2021/05/25 01:59:08;;;;;;;2.22;0.82;;;12.10;99.90;;;;;;2070515;28;20018;-68
2021/05/25 02:00:09;;;;;;;0.75;0.50;;;12.20;99.90;;;;;;2063936;28;20030;-68
2021/05/25 02:01:11;;;;;;;1.55;0.93;;;12.20;99.90;;;;;;2065396;28;20022;-68
2021/05/25 02:02:11;;;;;;;1.70;0.65;;;12.20;99.90;;;;;;2064673;28;20105;-68
2021/05/25 02:03:12;;;;;;;0.43;0.43;;;12.20;99.90;;;;;;2065045;28;20026;-69
2021/05/25 02:04:13;;;;;;;2.03;0.77;;;12.20;99.90;;;;;;2065143;28;20425;-68
2021/05/25 02:05:14;;;;;;;1.13;0.60;;;12.20;99.90;;;;;;2065235;28;20022;-68
2021/05/25 02:06:14;;;;;;;1.38;0.50;;;12.10;99.90;;;;;;2065379;28;20493;-68
2021/05/25 02:07:18;;;;;;;0.80;0.60;;;12.20;99.90;;;;;;2065144;28;20405;-68
2021/05/25 02:08:20;;;;;;;2.38;0.88;;;12.10;99.90;;;;;;2065141;28;20038;-68
2021/05/25 02:09:21;;;;;;;0.90;0.50;;;12.20;99.90;;;;;;2065328;28;20378;-68
2021/05/25 02:10:27;;;;;;;1.88;0.90;;;12.10;99.90;;;;;;2065302;28;20053;-68
2021/05/25 02:11:28;;;;;;;0.85;0.50;;;12.10;99.90;;;;;;2064988;28;20026;-68
2021/05/25 02:12:28;;;;;;;1.65;0.70;;;12.10;99.90;;;;;;2064603;28;20120;-68
2021/05/25 02:13:34;;;;;;;2.50;0.90;;;12.10;99.90;;;;;;2064996;28;20429;-68
2021/05/25 02:14:35;;;;;;;2.75;0.90;;;12.10;99.90;;;;;;2065022;28;20378;-68
2021/05/25 02:15:36;;;;;;;1.88;0.75;;;12.10;99.90;;;;;;2065292;28;20041;-68
2021/05/25 02:16:37;;;;;;;0.90;0.63;;;12.10;99.90;;;;;;2064528;28;20034;-68
2021/05/25 02:17:38;;;;;;;4.35;0.88;;;12.10;99.90;;;;;;2064503;28;20066;-69
2021/05/25 02:18:44;;;;;;;1.40;0.68;;;12.10;99.90;;;;;;2065292;28;20442;-68
2021/05/25 02:19:45;;;;;;;4.93;0.70;;;12.10;99.90;;;;;;2064702;28;20112;-68
2021/05/25 02:20:50;;;;;;;0.70;0.60;;;12.10;99.90;;;;;;2065304;28;20026;-68
2021/05/25 02:21:50;;;;;;;0.90;0.57;;;12.10;99.90;;;;;;2065012;28;20023;-68
2021/05/25 02:22:51;;;;;;;1.38;0.70;;;12.10;99.90;;;;;;2064685;28;20030;-69
2021/05/25 02:23:51;;;;;;;0.98;0.80;;;12.00;99.90;;;;;;2065023;28;20489;-68
2021/05/25 02:24:52;;;;;;;1.45;0.70;;;12.00;99.90;;;;;;2064973;28;20053;-69
2021/05/25 02:25:53;;;;;;;1.33;0.60;;;12.00;99.90;;;;;;2064936;28;20027;-68
2021/05/25 02:26:53;;;;;;;1.83;0.75;;;12.00;99.90;;;;;;2065197;28;20026;-68
2021/05/25 02:27:54;;;;;;;1.67;0.80;;;12.00;99.90;;;;;;2064920;28;20026;-68
2021/05/25 02:28:55;;;;;;;1.17;0.70;;;12.00;99.90;;;;;;2065216;28;20089;-68
2021/05/25 02:29:56;;;;;;;2.65;0.70;;;12.10;99.90;;;;;;2064781;28;20378;-68
2021/05/25 02:30:57;;;;;;;1.17;0.60;;;12.00;99.90;;;;;;2064804;28;20026;-68
2021/05/25 02:31:57;;;;;;;4.55;0.90;;;12.00;99.90;;;;;;2064896;28;20050;-69
2021/05/25 02:32:59;;;;;;;1.50;0.63;;;12.00;99.90;;;;;;2064707;28;20085;-68
2021/05/25 02:34:00;;;;;;;1.05;0.63;;;12.00;99.90;;;;;;2064621;28;20050;-68
2021/05/25 02:35:00;;;;;;;4.40;0.90;;;12.00;99.90;;;;;;2065255;28;20026;-68
2021/05/25 02:36:03;;;;;;;1.08;0.77;;;12.00;99.90;;;;;;2064792;28;20334;-68
2021/05/25 02:37:03;;;;;;;2.42;0.80;;;12.00;99.90;;;;;;2065093;28;20053;-68
2021/05/25 02:38:05;;;;;;;1.75;0.70;;;12.00;99.90;;;;;;2064897;28;20474;-68
2021/05/25 02:39:06;;;;;;;0.80;0.60;;;12.00;99.90;;;;;;2065117;28;20375;-68
2021/05/25 02:40:10;;;;;;;1.42;0.77;;;12.00;99.90;;;;;;2064837;28;20101;-68
2021/05/25 02:41:11;;;;;;;3.90;1.30;;;12.00;99.90;;;;;;2072466;28;20029;-68
2021/05/25 02:42:12;;;;;;;2.17;0.77;;;12.00;99.90;;;;;;2071531;28;20514;-68
2021/05/25 02:43:14;;;;;;;1.30;0.60;;;12.00;99.90;;;;;;2065095;28;20471;-68
2021/05/25 02:44:14;;;;;;;1.75;0.80;;;12.00;99.90;;;;;;2064603;28;20034;-68
2021/05/25 02:45:15;;;;;;;4.68;1.00;;;12.00;99.90;;;;;;2065001;28;20044;-69
2021/05/25 02:46:16;;;;;;;1.33;0.90;;;12.00;99.90;;;;;;2064942;28;20501;-68
2021/05/25 02:47:16;;;;;;;1.65;0.80;;;12.00;99.90;;;;;;2064685;28;20156;-69
2021/05/25 02:48:18;;;;;;;0.52;0.52;;;12.00;99.90;;;;;;2064306;28;20464;-68
2021/05/25 02:49:19;;;;;;;2.03;0.75;;;11.90;99.90;;;;;;2064389;28;20471;-68
2021/05/25 02:50:20;;;;;;;1.25;0.60;;;11.90;99.90;;;;;;2064414;28;20360;-68
2021/05/25 02:51:21;;;;;;;1.58;0.60;;;11.90;99.90;;;;;;2064259;28;20026;-68
2021/05/25 02:52:21;;;;;;;2.03;0.90;;;11.90;99.90;;;;;;2064035;28;20022;-68
2021/05/25 02:53:22;;;;;;;0.70;0.65;;;12.00;99.90;;;;;;2064913;28;20030;-68
2021/05/25 02:54:23;;;;;;;1.55;0.60;;;12.00;99.90;;;;;;2064682;28;20037;-68
2021/05/25 02:55:29;;;;;;;1.70;0.80;;;11.90;99.90;;;;;;2064862;28;20025;-68
2021/05/25 02:56:29;;;;;;;1.60;0.90;;;11.90;99.90;;;;;;2072204;28;20113;-68
2021/05/25 02:57:30;;;;;;;2.10;0.77;;;11.90;99.90;;;;;;2072137;28;20022;-68
2021/05/25 02:58:30;;;;;;;1.35;0.80;;;11.90;99.90;;;;;;2064698;28;20030;-68
2021/05/25 02:59:31;;;;;;;3.13;0.80;;;11.90;99.90;;;;;;2064945;28;20046;-68
2021/05/25 03:00:42;;;;;;;1.58;0.82;;;11.90;99.90;;;;;;2064496;28;20018;-68
2021/05/25 03:01:42;;;;;;;2.72;0.82;;;12.00;99.90;;;;;;2064327;28;20050;-68
2021/05/25 03:02:43;;;;;;;3.97;0.95;;;11.90;99.90;;;;;;2062917;28;20114;-69
2021/05/25 03:03:44;;;;;;;1.00;0.68;;;12.00;99.90;;;;;;2063677;28;20164;-68
2021/05/25 03:04:44;;;;;;;1.95;0.80;;;12.00;99.90;;;;;;2063693;28;20087;-68
2021/05/25 03:05:46;;;;;;;1.42;0.90;;;12.00;99.90;;;;;;2063925;28;20053;-68
2021/05/25 03:06:47;;;;;;;1.42;0.95;;;11.90;99.90;;;;;;2063788;28;20030;-68
2021/05/25 03:07:48;;;;;;;1.25;0.70;;;12.00;99.90;;;;;;2063805;28;20062;-68
2021/05/25 03:08:49;;;;;;;1.30;0.85;;;12.00;99.90;;;;;;2063737;28;20034;-68
2021/05/25 03:09:50;;;;;;;1.48;0.85;;;12.00;99.90;;;;;;2063504;28;20060;-69
2021/05/25 03:10:50;;;;;;;1.75;0.57;;;12.00;99.90;;;;;;2063073;28;20538;-68
2021/05/25 03:11:51;;;;;;;4.05;0.60;;;12.00;99.90;;;;;;2062787;28;20061;-68
2021/05/25 03:12:52;;;;;;;1.77;0.60;;;12.00;99.90;;;;;;2062805;28;20110;-69
2021/05/25 03:13:53;;;;;;;1.98;0.60;;;12.00;99.90;;;;;;2063157;28;20022;-68
2021/05/25 03:14:53;;;;;;;1.85;0.60;;;11.90;99.90;;;;;;2063276;28;20033;-68
2021/05/25 03:15:54;;;;;;;2.47;0.73;;;11.90;99.90;;;;;;2063312;28;20386;-68
2021/05/25 03:16:54;;;;;;;1.52;0.70;;;11.90;99.90;;;;;;2063329;28;20039;-68
2021/05/25 03:17:55;;;;;;;1.45;0.68;;;11.90;99.90;;;;;;2062816;28;20029;-68
2021/05/25 03:18:56;;;;;;;2.05;0.50;;;11.90;99.90;;;;;;2063436;28;20488;-68
2021/05/25 03:19:57;;;;;;;2.13;0.63;;;11.90;99.90;;;;;;2063066;28;20156;-68
2021/05/25 03:20:58;;;;;;;1.75;0.88;;;11.90;99.90;;;;;;2071106;28;20104;-68
2021/05/25 03:21:58;;;;;;;1.20;0.60;;;11.90;99.90;;;;;;2071094;28;20025;-68
2021/05/25 03:22:59;;;;;;;1.20;0.50;;;11.90;99.90;;;;;;2070297;28;20017;-68
2021/05/25 03:23:59;;;;;;;2.38;0.55;;;11.90;99.90;;;;;;2070696;28;20125;-68
2021/05/25 03:25:00;;;;;;;1.70;0.75;;;11.90;99.90;;;;;;2063318;28;20022;-68
2021/05/25 03:26:02;;;;;;;2.35;0.70;;;11.90;99.90;;;;;;2063108;28;20026;-68
2021/05/25 03:27:03;;;;;;;1.27;0.77;;;11.90;99.90;;;;;;2063430;28;20485;-68
2021/05/25 03:28:05;;;;;;;1.35;0.70;;;11.90;99.90;;;;;;2063044;28;20026;-68
2021/05/25 03:29:05;;;;;;;1.00;0.68;;;11.80;99.90;;;;;;2063181;28;20054;-68
2021/05/25 03:30:09;;;;;;;0.57;0.50;;;11.80;99.90;;;;;;2063282;28;20089;-68
2021/05/25 03:31:09;;;;;;;2.33;0.77;;;11.80;99.90;;;;;;2063195;28;20524;-68
2021/05/25 03:32:10;;;;;;;1.95;0.52;;;11.80;99.90;;;;;;2062569;28;20026;-68
2021/05/25 03:33:11;;;;;;;1.23;0.75;;;11.80;99.90;;;;;;2063518;28;20097;-68
2021/05/25 03:34:11;;;;;;;2.10;0.50;;;11.80;99.90;;;;;;2062912;28;20027;-68
2021/05/25 03:35:14;;;;;;;1.40;0.57;;;11.90;99.90;;;;;;2063694;28;20454;-68
2021/05/25 03:36:14;;;;;;;1.85;0.80;;;11.90;99.90;;;;;;2062975;28;20363;-68
2021/05/25 03:37:15;;;;;;;0.77;0.70;;;11.80;99.90;;;;;;2063435;28;20049;-68
2021/05/25 03:38:15;;;;;;;1.95;0.60;;;11.80;99.90;;;;;;2063079;28;20042;-68
2021/05/25 03:39:16;;;;;;;1.92;0.60;;;11.90;99.90;;;;;;2063403;28;20029;-68
2021/05/25 03:40:18;;;;;;;1.33;0.60;;;11.90;99.90;;;;;;2063307;28;20525;-68
2021/05/25 03:41:18;;;;;;;0.90;0.60;;;11.90;99.90;;;;;;2063052;28;20030;-68
2021/05/25 03:42:19;;;;;;;1.10;0.52;;;11.90;99.90;;;;;;2062495;28;20027;-68
2021/05/25 03:43:19;;;;;;;1.63;0.70;;;11.80;99.90;;;;;;2063333;28;20475;-68
2021/05/25 03:44:20;;;;;;;0.98;0.68;;;11.90;99.90;;;;;;2062939;28;20030;-68
2021/05/25 03:45:23;;;;;;;0.88;0.77;;;11.90;99.90;;;;;;2062733;28;20470;-68
2021/05/25 03:46:23;;;;;;;2.30;0.73;;;11.90;99.90;;;;;;2062488;28;20057;-68
2021/05/25 03:47:25;;;;;;;2.53;0.57;;;11.90;99.90;;;;;;2062836;28;20490;-68
2021/05/25 03:48:25;;;;;;;0.95;0.52;;;11.90;99.90;;;;;;2063243;28;20497;-69
2021/05/25 03:49:26;;;;;;;1.17;0.55;;;11.90;99.90;;;;;;2063325;28;20057;-68
2021/05/25 03:50:26;;;;;;;2.03;0.60;;;11.90;99.90;;;;;;2063155;28;20771;-68
2021/05/25 03:51:27;;;;;;;0.60;0.55;;;11.90;99.90;;;;;;2063011;28;20034;-68
2021/05/25 03:52:27;;;;;;;0.93;0.88;;;11.90;99.90;;;;;;2062266;28;20105;-68
2021/05/25 03:53:28;;;;;;;1.50;0.70;;;11.90;99.90;;;;;;2063132;28;20077;-68
2021/05/25 03:54:38;;;;;;;2.03;0.70;;;11.90;99.90;;;;;;2063637;28;20026;-68
2021/05/25 03:57:24;;;;;;;7.80;1.17;;;11.90;99.90;;;;;;2063304;28;20493;-68
2021/05/25 03:59:25;;;;;;;0.77;0.57;;;11.80;99.90;;;;;;2063282;28;20034;-68
2021/05/25 04:00:26;;;;;;;2.55;0.77;;;11.80;99.90;;;;;;2063128;28;20030;-68
2021/05/25 04:01:28;;;;;;;1.65;0.50;;;11.80;99.90;;;;;;2063206;28;20038;-68
2021/05/25 04:02:30;;;;;;;1.88;0.95;;;11.80;99.90;;;;;;2062482;28;20030;-68
2021/05/25 04:03:33;;;;;;;1.17;0.60;;;11.80;99.90;;;;;;2062564;28;20419;-68
2021/05/25 04:04:33;;;;;;;1.10;0.73;;;11.80;99.90;;;;;;2063233;28;20105;-68
2021/05/25 04:05:34;;;;;;;3.05;0.70;;;11.90;99.90;;;;;;2062647;28;20022;-68
2021/05/25 04:06:34;;;;;;;0.40;0.40;;;11.90;99.90;;;;;;2062365;28;20042;-68
2021/05/25 04:07:35;;;;;;;2.10;0.65;;;11.90;99.90;;;;;;2062481;28;20038;-68
2021/05/25 04:08:36;;;;;;;1.88;0.63;;;11.90;99.90;;;;;;2063048;28;20033;-68
2021/05/25 04:09:36;;;;;;;1.23;0.63;;;11.90;99.90;;;;;;2063077;28;20041;-68
2021/05/25 04:10:37;;;;;;;2.10;0.77;;;11.80;99.90;;;;;;2063227;28;20184;-68
2021/05/25 04:11:38;;;;;;;0.57;0.40;;;11.90;99.90;;;;;;2062940;28;20504;-68
2021/05/25 04:12:38;;;;;;;1.50;0.60;;;11.90;99.90;;;;;;2062763;28;20101;-69
2021/05/25 04:13:39;;;;;;;3.72;0.80;;;11.90;99.90;;;;;;2062355;28;20474;-68
2021/05/25 04:14:40;;;;;;;1.10;0.60;;;11.90;99.90;;;;;;2062887;28;20023;-68
2021/05/25 04:15:49;;;;;;;1.75;0.40;;;11.90;99.90;;;;;;2063087;28;20037;-68
2021/05/25 04:16:49;;;;;;;3.05;0.70;;;11.90;99.90;;;;;;2062956;28;20169;-69
2021/05/25 04:17:54;;;;;;;1.27;0.35;;;11.90;99.90;;;;;;2062807;28;20026;-68
2021/05/25 04:18:55;;;;;;;1.17;0.47;;;11.80;99.90;;;;;;2062784;28;20418;-68
2021/05/25 04:19:55;;;;;;;1.42;0.70;;;11.90;99.90;;;;;;2062746;28;20019;-68
2021/05/25 04:20:56;;;;;;;2.80;0.98;;;11.80;99.90;;;;;;2063225;28;20030;-68
2021/05/25 04:21:57;;;;;;;1.10;0.60;;;11.80;99.90;;;;;;2062891;28;20488;-68
2021/05/25 04:22:58;;;;;;;2.35;1.02;;;11.80;99.90;;;;;;2062306;28;20301;-68
2021/05/25 04:23:59;;;;;;;0.50;0.50;;;11.80;99.90;;;;;;2062855;28;20160;-68
2021/05/25 04:24:59;;;;;;;0.75;0.70;;;11.80;99.90;;;;;;2062621;28;20022;-68
2021/05/25 04:26:00;;;;;;;1.85;0.63;;;11.80;99.90;;;;;;2063082;28;20149;-68
2021/05/25 04:27:00;;;;;;;1.73;0.63;;;11.80;99.90;;;;;;2063384;28;20081;-68
2021/05/25 04:28:01;;;;;;;1.23;0.55;;;11.80;99.90;;;;;;2063198;28;20057;-68
2021/05/25 04:29:02;;;;;;;0.77;0.55;;;11.90;99.90;;;;;;2062438;28;20050;-69
2021/05/25 04:30:05;;;;;;;1.08;0.40;;;11.90;99.90;;;;;;2063168;28;20475;-68
2021/05/25 04:31:06;;;;;;;0.57;0.40;;;11.90;99.90;;;;;;2062597;28;20018;-68
2021/05/25 04:32:08;;;;;;;1.73;0.57;;;11.90;99.90;;;;;;2063145;28;20023;-68
2021/05/25 04:33:08;;;;;;;0.60;0.38;;;11.90;99.90;;;;;;2062851;28;20034;-68
2021/05/25 04:34:09;;;;;;;0.77;0.40;;;11.90;99.90;;;;;;2062843;28;20019;-68
2021/05/25 04:35:10;;;;;;;0.95;0.40;;;11.90;99.90;;;;;;2062638;28;20018;-68
2021/05/25 04:36:10;;;;;;;3.78;0.85;;;11.90;99.90;;;;;;2062938;28;20489;-68
2021/05/25 04:37:11;;;;;;;1.20;0.63;;;11.90;99.90;;;;;;2062859;28;20446;-69
2021/05/25 04:38:12;;;;;;;0.75;0.70;;;11.90;99.90;;;;;;2063165;28;20034;-68
2021/05/25 04:39:12;;;;;;;2.15;0.95;;;11.90;99.90;;;;;;2062744;28;20049;-68
2021/05/25 04:40:14;;;;;;;0.65;0.50;;;11.90;99.90;;;;;;2063071;28;20424;-68
2021/05/25 04:41:14;;;;;;;1.05;0.50;;;11.90;99.90;;;;;;2062587;28;20026;-68
2021/05/25 04:42:15;;;;;;;0.60;0.50;;;11.80;99.90;;;;;;2062506;28;20550;-69
2021/05/25 04:43:16;;;;;;;1.23;0.60;;;11.90;99.90;;;;;;2070280;28;20066;-69
2021/05/25 04:44:16;;;;;;;1.67;0.60;;;11.90;99.90;;;;;;2070092;28;20450;-69
2021/05/25 04:45:18;;;;;;;2.00;0.60;;;11.80;99.90;;;;;;2062530;28;20061;-69
2021/05/25 04:46:18;;;;;;;1.95;0.55;;;11.90;99.90;;;;;;2063088;28;20332;-69
2021/05/25 04:47:19;;;;;;;2.05;0.52;;;11.80;99.90;;;;;;2063065;28;20034;-69
2021/05/25 04:48:20;;;;;;;0.70;0.45;;;11.80;99.90;;;;;;2062859;28;20050;-69
2021/05/25 04:49:21;;;;;;;1.75;0.80;;;11.80;99.90;;;;;;2062906;28;20074;-69
2021/05/25 04:50:22;;;;;;;1.30;0.40;;;11.80;99.90;;;;;;2062816;28;20035;-69
2021/05/25 04:51:22;;;;;;;1.83;0.60;;;11.80;99.90;;;;;;2062724;28;20030;-69
2021/05/25 04:52:23;;;;;;;1.10;0.40;;;11.80;99.90;;;;;;2062436;28;21182;-69
2021/05/25 04:53:23;;;;;;;0.63;0.30;;;11.80;99.90;;;;;;2062598;28;20026;-69
2021/05/25 04:54:24;;;;;;;0.70;0.57;;;11.80;99.90;;;;;;2063282;28;20026;-69
2021/05/25 04:55:25;;;;;;;2.47;0.60;;;11.80;99.90;;;;;;2062618;28;20482;-69
2021/05/25 04:56:25;;;;;;;1.50;0.73;;;11.80;99.90;;;;;;2062248;28;20197;-69
2021/05/25 04:57:28;;;;;;;1.23;0.40;;;11.80;99.90;;;;;;2062334;28;20058;-69
2021/05/25 04:58:29;;;;;;;1.30;0.65;;;11.80;99.90;;;;;;2063143;28;20061;-69
2021/05/25 04:59:30;;;;;;;0.73;0.50;;;11.90;99.90;;;;;;2062663;28;20023;-69
2021/05/25 05:00:30;;;;;;;2.70;0.88;;;11.90;99.90;;;;;;2062887;28;20054;-69
2021/05/25 05:01:31;;;;;;;0.85;0.52;;;11.90;99.90;;;;;;2062836;28;20068;-69
2021/05/25 05:02:32;;;;;;;3.13;0.63;;;11.80;99.90;;;;;;2061536;28;20542;-69
2021/05/25 05:03:33;;;;;;;0.98;0.47;;;11.90;99.90;;;;;;2061542;28;20510;-69
2021/05/25 05:04:33;;;;;;;1.88;0.50;;;11.90;99.90;;;;;;2069945;28;20108;-69
2021/05/25 05:05:34;;;;;;;3.05;0.70;;;11.90;99.90;;;;;;2062909;28;20026;-68
2021/05/25 05:06:34;;;;;;;2.08;0.47;;;11.90;99.90;;;;;;2062797;28;20038;-69
2021/05/25 05:07:35;;;;;;;0.55;0.30;;;11.90;99.90;;;;;;2063163;28;20030;-69
2021/05/25 05:08:36;;;;;;;1.02;0.57;;;11.90;99.90;;;;;;2062083;28;20030;-69
2021/05/25 05:09:37;;;;;;;1.02;0.60;;;11.90;99.90;;;;;;2062403;28;20097;-69
2021/05/25 05:10:37;;;;;;;1.30;0.82;;;11.90;99.90;;;;;;2062849;28;20136;-69
2021/05/25 05:11:38;;;;;;;1.33;0.88;;;11.90;99.90;;;;;;2062913;28;20049;-69
2021/05/25 05:12:38;;;;;;;2.72;0.70;;;11.90;99.90;;;;;;2062021;28;20034;-69
2021/05/25 05:13:39;;;;;;;1.35;0.60;;;11.90;99.90;;;;;;2063037;28;20030;-69
2021/05/25 05:14:39;;;;;;;1.60;0.80;;;11.90;99.90;;;;;;2063575;28;20533;-69
2021/05/25 05:15:40;;;;;;;2.25;0.57;;;11.90;99.90;;;;;;2064192;28;20030;-69
2021/05/25 05:16:41;;;;;;;1.42;0.80;;;12.00;99.90;;;;;;2063755;28;20387;-68
2021/05/25 05:17:42;;;;;;;3.03;0.60;;;12.00;99.90;;;;;;2063643;28;20026;-68
2021/05/25 05:18:43;;;;;;;1.17;0.60;;;12.00;99.90;;;;;;2064043;28;20029;-68
2021/05/25 05:19:43;;;;;;;1.15;0.60;;;12.00;99.90;;;;;;2064199;28;20033;-68
2021/05/25 05:20:44;;;;;;;1.05;0.82;;;12.00;99.90;;;;;;2064294;28;20033;-68
2021/05/25 05:21:44;;;;;;;2.35;0.70;;;12.00;99.90;;;;;;2064636;28;20418;-68
2021/05/25 05:22:45;;;;;;;1.25;0.73;;;12.00;99.90;;;;;;2063386;28;20092;-68